Time;durP1;ratioP1;P1;durP2;ratioP2;P2;SDS_P1;SDS_P2;PMS_P1;PMS_P2;Temp;Humidity;BMP_temperature;BMP_pressure;BME280_temperature;BME280_humidity;BME280_pressure;Samples;Min_cycle;Max_cycle;Signal;HPM_P1;HPM_P2
2023/03/12 00:00:29;;;;;;;6.53;5.20;;;10.90;99.90;;;;;;5049161;28;20463;-91
2023/03/12 00:02:55;;;;;;;6.43;4.90;;;10.90;99.90;;;;;;5049091;28;20021;-91
2023/03/12 00:05:21;;;;;;;5.38;4.72;;;10.90;99.90;;;;;;5049080;28;20037;-90
2023/03/12 00:07:47;;;;;;;4.95;4.55;;;10.90;99.90;;;;;;5049169;28;20029;-91
2023/03/12 00:10:13;;;;;;;5.60;4.50;;;10.90;99.90;;;;;;5049119;28;20033;-91
2023/03/12 00:12:39;;;;;;;6.07;4.93;;;10.90;99.90;;;;;;5048378;27;20081;-91
2023/03/12 00:15:05;;;;;;;8.10;4.47;;;11.00;99.90;;;;;;5049111;28;20471;-91
2023/03/12 00:17:31;;;;;;;5.53;4.40;;;10.90;99.90;;;;;;5048779;28;20492;-91
2023/03/12 00:19:57;;;;;;;5.40;4.63;;;10.90;99.90;;;;;;5048999;28;20040;-91
2023/03/12 00:22:24;;;;;;;5.05;4.03;;;10.90;99.90;;;;;;5048918;28;20025;-91
2023/03/12 00:24:51;;;;;;;5.00;4.03;;;10.90;99.90;;;;;;5048679;28;20029;-91
2023/03/12 00:27:18;;;;;;;4.40;4.00;;;10.90;99.90;;;;;;5048511;28;20029;-91
2023/03/12 00:29:43;;;;;;;5.50;4.30;;;11.00;99.90;;;;;;5048834;28;20022;-91
2023/03/12 00:32:09;;;;;;;5.88;4.35;;;10.90;99.90;;;;;;5048824;28;20036;-90
2023/03/12 00:34:35;;;;;;;4.65;4.10;;;10.90;99.90;;;;;;5048366;28;20038;-91
2023/03/12 00:37:00;;;;;;;4.28;3.72;;;10.90;99.90;;;;;;5047864;28;20394;-91
2023/03/12 00:39:26;;;;;;;4.30;3.90;;;10.90;99.90;;;;;;5048184;28;20044;-90
2023/03/12 00:41:52;;;;;;;4.05;3.65;;;10.90;99.90;;;;;;5048199;28;20036;-91
2023/03/12 00:44:17;;;;;;;4.20;3.80;;;10.90;99.90;;;;;;5050354;28;20053;-91
2023/03/12 00:46:43;;;;;;;3.90;3.45;;;10.90;99.90;;;;;;5052109;28;20017;-91
2023/03/12 00:49:10;;;;;;;4.20;3.67;;;10.90;99.90;;;;;;5051955;28;20048;-91
2023/03/12 00:51:36;;;;;;;4.68;4.28;;;10.90;99.90;;;;;;5051987;28;20405;-91
2023/03/12 00:54:02;;;;;;;4.30;3.90;;;10.80;99.90;;;;;;5050636;28;20436;-91
2023/03/12 00:56:28;;;;;;;3.92;3.28;;;10.80;99.90;;;;;;5051578;28;20017;-90
2023/03/12 00:58:53;;;;;;;3.30;3.00;;;10.80;99.90;;;;;;5051818;28;20394;-90
2023/03/12 01:01:19;;;;;;;4.00;3.10;;;10.70;99.90;;;;;;5051717;28;20025;-91
2023/03/12 01:03:45;;;;;;;5.45;3.60;;;10.70;99.90;;;;;;5051818;28;20061;-91
2023/03/12 01:06:11;;;;;;;3.42;3.13;;;10.70;99.90;;;;;;5051822;28;20024;-91
2023/03/12 01:08:37;;;;;;;3.58;3.28;;;10.70;99.90;;;;;;5051647;28;20025;-91
2023/03/12 01:11:03;;;;;;;6.57;3.60;;;10.70;99.90;;;;;;5051439;28;20509;-91
2023/03/12 01:13:29;;;;;;;6.05;3.63;;;10.80;99.90;;;;;;5051558;27;20040;-91
2023/03/12 01:15:55;;;;;;;4.32;3.30;;;10.80;99.90;;;;;;5051373;28;20025;-91
2023/03/12 01:18:21;;;;;;;5.43;3.78;;;10.80;99.90;;;;;;5051460;28;20033;-91
2023/03/12 01:20:47;;;;;;;5.30;4.72;;;10.80;99.90;;;;;;5051522;28;20111;-90
2023/03/12 01:23:12;;;;;;;5.75;4.95;;;10.70;99.90;;;;;;5051430;28;20035;-91
2023/03/12 01:25:39;;;;;;;5.47;4.40;;;10.60;99.90;;;;;;5051006;28;20033;-90
2023/03/12 01:28:05;;;;;;;4.47;3.65;;;10.60;99.90;;;;;;5051279;28;20021;-90
2023/03/12 01:30:31;;;;;;;7.07;3.60;;;10.80;99.90;;;;;;5051378;28;20025;-90
2023/03/12 01:32:57;;;;;;;6.53;5.07;;;10.80;99.90;;;;;;5051251;28;20479;-90
2023/03/12 01:35:23;;;;;;;6.65;5.15;;;10.80;99.90;;;;;;5051351;28;20063;-90
2023/03/12 01:37:48;;;;;;;5.28;4.05;;;10.70;99.90;;;;;;5049942;28;20025;-90
2023/03/12 01:40:20;;;;;;;5.43;4.38;;;10.70;99.90;;;;;;5050868;28;20043;-90
2023/03/12 01:42:56;;;;;;;6.28;5.68;;;10.80;99.90;;;;;;5051096;28;20503;-90
2023/03/12 01:45:59;;;;;;;6.95;5.25;;;10.70;99.90;;;;;;5051106;28;20040;-90
2023/03/12 01:48:29;;;;;;;5.47;4.32;;;10.70;99.90;;;;;;5051164;28;20025;-90
2023/03/12 01:50:54;;;;;;;8.05;6.40;;;10.70;99.90;;;;;;5051068;28;20047;-91
2023/03/12 01:53:21;;;;;;;8.15;7.05;;;10.60;99.90;;;;;;5050567;28;20029;-90
2023/03/12 01:55:47;;;;;;;7.75;6.97;;;10.60;99.90;;;;;;5050565;28;20120;-90
2023/03/12 01:58:14;;;;;;;7.32;6.63;;;10.60;99.90;;;;;;5050880;28;20535;-91
2023/03/12 02:00:40;;;;;;;7.85;6.90;;;10.70;99.90;;;;;;5050769;28;20070;-90
2023/03/12 02:03:07;;;;;;;7.40;6.70;;;10.70;99.90;;;;;;5050866;28;20029;-90
2023/03/12 02:05:33;;;;;;;6.43;5.72;;;10.70;99.90;;;;;;5050870;28;20028;-90
2023/03/12 02:07:58;;;;;;;9.95;6.15;;;10.60;99.90;;;;;;5050366;28;20483;-90
2023/03/12 02:10:25;;;;;;;7.60;6.82;;;10.70;99.90;;;;;;5050989;28;20060;-90
2023/03/12 02:12:51;;;;;;;9.52;6.68;;;10.60;99.90;;;;;;5050454;27;20454;-90
2023/03/12 02:15:17;;;;;;;8.85;7.80;;;10.70;99.90;;;;;;5050703;28;20455;-91
2023/03/12 02:17:43;;;;;;;9.45;7.50;;;10.60;99.90;;;;;;5050485;28;20125;-91
2023/03/12 02:20:17;;;;;;;10.88;8.15;;;10.60;99.90;;;;;;5050486;28;20124;-90
2023/03/12 02:22:50;;;;;;;9.15;8.25;;;10.70;99.90;;;;;;5050299;28;20072;-90
2023/03/12 02:25:21;;;;;;;10.00;9.00;;;10.80;99.90;;;;;;5050433;28;20441;-90
2023/03/12 02:27:47;;;;;;;9.55;8.43;;;10.60;99.90;;;;;;5050550;28;20100;-90
2023/03/12 02:30:14;;;;;;;10.65;9.10;;;10.50;99.90;;;;;;5050493;28;20467;-91
2023/03/12 02:32:42;;;;;;;10.35;8.63;;;10.70;99.90;;;;;;5050375;28;20031;-90
2023/03/12 02:35:08;;;;;;;9.88;8.88;;;10.70;99.90;;;;;;5050389;28;20021;-90
2023/03/12 02:37:34;;;;;;;11.55;9.73;;;10.60;99.90;;;;;;5048519;28;20406;-90
2023/03/12 02:40:14;;;;;;;10.10;8.50;;;10.60;99.90;;;;;;5050244;28;20033;-91
2023/03/12 02:42:40;;;;;;;9.73;8.55;;;10.60;99.90;;;;;;5050187;28;20049;-90
2023/03/12 02:45:06;;;;;;;9.95;8.80;;;10.60;99.90;;;;;;5050311;28;20064;-91
2023/03/12 02:47:31;;;;;;;9.93;8.93;;;10.60;99.90;;;;;;5050392;28;20317;-91
2023/03/12 02:49:57;;;;;;;10.52;9.00;;;10.50;99.90;;;;;;5049998;28;20101;-90
2023/03/12 02:52:23;;;;;;;12.18;9.43;;;10.50;99.90;;;;;;5048667;28;20021;-90
2023/03/12 02:54:48;;;;;;;12.55;9.50;;;10.50;99.90;;;;;;5049948;28;20104;-91
2023/03/12 02:57:14;;;;;;;11.18;8.82;;;10.40;99.90;;;;;;5050077;28;20080;-90
2023/03/12 02:59:39;;;;;;;10.07;9.00;;;10.40;99.90;;;;;;5050052;28;20036;-90
2023/03/12 03:02:05;;;;;;;7.90;7.05;;;10.40;99.90;;;;;;5049832;28;20033;-91
2023/03/12 03:04:33;;;;;;;6.88;5.97;;;10.40;99.90;;;;;;5050028;28;20456;-91
2023/03/12 03:06:59;;;;;;;6.38;5.40;;;10.30;99.90;;;;;;5048726;28;20021;-91
2023/03/12 03:09:25;;;;;;;7.53;4.95;;;10.30;99.90;;;;;;5049819;28;20032;-90
2023/03/12 03:11:51;;;;;;;8.93;4.93;;;10.30;99.90;;;;;;5049677;27;20093;-91
2023/03/12 03:14:17;;;;;;;6.47;4.97;;;10.40;99.90;;;;;;5049701;28;20025;-90
2023/03/12 03:16:43;;;;;;;5.28;4.78;;;10.40;99.90;;;;;;5049612;28;20045;-90
2023/03/12 03:19:10;;;;;;;8.40;4.78;;;10.50;99.90;;;;;;5049729;28;20037;-90
2023/03/12 03:21:36;;;;;;;6.50;4.82;;;10.50;99.90;;;;;;5049228;28;20182;-90
2023/03/12 03:24:01;;;;;;;5.93;4.18;;;10.50;99.90;;;;;;5049698;28;20070;-91
2023/03/12 03:26:27;;;;;;;5.20;4.47;;;10.60;99.90;;;;;;5049611;28;20025;-90
2023/03/12 03:28:53;;;;;;;5.38;4.13;;;10.50;99.90;;;;;;5049627;28;20478;-91
2023/03/12 03:31:19;;;;;;;4.43;3.80;;;10.60;99.90;;;;;;5049586;28;20026;-90
2023/03/12 03:33:45;;;;;;;4.97;4.00;;;10.50;99.90;;;;;;5049466;28;20029;-90
2023/03/12 03:36:13;;;;;;;4.78;3.88;;;10.50;99.90;;;;;;5049276;28;20037;-90
2023/03/12 03:38:39;;;;;;;5.25;3.65;;;10.50;99.90;;;;;;5049344;28;20025;-90
2023/03/12 03:41:05;;;;;;;3.75;3.45;;;10.60;99.90;;;;;;5049578;28;20025;-90
2023/03/12 03:43:30;;;;;;;3.95;3.28;;;10.50;99.90;;;;;;5049425;28;20483;-91
2023/03/12 03:46:02;;;;;;;3.75;3.00;;;10.60;99.90;;;;;;5049275;28;20033;-91
2023/03/12 03:48:28;;;;;;;4.25;3.60;;;10.60;99.90;;;;;;5049433;28;20025;-91
2023/03/12 03:50:54;;;;;;;4.53;3.08;;;10.60;99.90;;;;;;5048939;28;20379;-90
2023/03/12 03:53:20;;;;;;;4.72;3.20;;;10.60;99.90;;;;;;5049253;28;20036;-91
2023/03/12 03:55:46;;;;;;;5.57;3.17;;;10.60;99.90;;;;;;5049409;28;20032;-91
2023/03/12 03:58:12;;;;;;;3.90;3.00;;;10.60;99.90;;;;;;5049000;28;20037;-90
2023/03/12 04:00:38;;;;;;;2.90;2.53;;;10.60;99.90;;;;;;5047892;28;20033;-91
2023/03/12 04:03:03;;;;;;;2.85;2.55;;;10.60;99.90;;;;;;5048841;28;20082;-91
2023/03/12 04:05:30;;;;;;;3.30;2.85;;;10.60;99.90;;;;;;5049070;28;20053;-91
2023/03/12 04:07:55;;;;;;;4.72;2.90;;;10.60;99.90;;;;;;5049102;28;20029;-91
2023/03/12 04:10:23;;;;;;;3.65;2.33;;;10.60;99.90;;;;;;5049014;28;20027;-91
2023/03/12 04:12:49;;;;;;;3.60;2.70;;;10.60;99.90;;;;;;5048816;27;20467;-91
2023/03/12 04:15:15;;;;;;;2.78;2.58;;;10.60;99.90;;;;;;5047922;28;20428;-91
2023/03/12 04:17:41;;;;;;;3.20;2.90;;;10.60;99.90;;;;;;5049419;28;20083;-90
2023/03/12 04:20:08;;;;;;;3.03;2.72;;;10.50;99.90;;;;;;5052528;28;20037;-90
2023/03/12 04:22:34;;;;;;;3.10;2.38;;;10.60;99.90;;;;;;5052322;28;20046;-91
2023/03/12 04:25:00;;;;;;;5.38;3.30;;;10.60;99.90;;;;;;5052449;28;20029;-91
2023/03/12 04:27:26;;;;;;;3.40;2.47;;;10.60;99.90;;;;;;5052330;28;20052;-91
2023/03/12 04:29:52;;;;;;;3.33;3.03;;;10.50;99.90;;;;;;5052423;28;20067;-90
2023/03/12 04:32:17;;;;;;;3.83;2.78;;;10.60;99.90;;;;;;5051972;28;20017;-91
2023/03/12 04:34:43;;;;;;;2.80;2.55;;;10.60;99.90;;;;;;5052265;28;20044;-91
2023/03/12 04:37:14;;;;;;;3.60;2.45;;;10.50;99.90;;;;;;5052093;28;20116;-90
2023/03/12 04:39:41;;;;;;;3.50;2.88;;;10.50;99.90;;;;;;5052241;28;20028;-91
2023/03/12 04:42:07;;;;;;;4.90;2.67;;;10.60;99.90;;;;;;5052080;28;20025;-91
2023/03/12 04:44:33;;;;;;;2.92;2.53;;;10.60;99.90;;;;;;5052074;28;20485;-90
2023/03/12 04:46:59;;;;;;;4.63;3.08;;;10.60;99.90;;;;;;5051728;28;20029;-91
2023/03/12 04:49:25;;;;;;;4.07;2.92;;;10.50;99.90;;;;;;5052021;28;20082;-91
2023/03/12 04:51:50;;;;;;;3.10;2.80;;;10.50;99.90;;;;;;5051999;28;20028;-91
2023/03/12 04:54:16;;;;;;;5.15;2.78;;;10.50;99.90;;;;;;5051950;28;20402;-91
2023/03/12 04:56:42;;;;;;;4.03;2.65;;;10.50;99.90;;;;;;5052024;28;20014;-90
2023/03/12 04:59:08;;;;;;;5.05;2.60;;;10.50;99.90;;;;;;5051894;28;20029;-91
2023/03/12 05:01:35;;;;;;;3.28;2.72;;;10.50;99.90;;;;;;5051401;28;20096;-91
2023/03/12 05:04:02;;;;;;;5.32;4.80;;;10.40;99.90;;;;;;5051875;28;20384;-91
2023/03/12 05:06:28;;;;;;;3.97;3.08;;;10.50;99.90;;;;;;5051834;28;20036;-90
2023/03/12 05:08:53;;;;;;;11.20;9.07;;;10.40;99.90;;;;;;5051784;28;20040;-90
2023/03/12 05:11:20;;;;;;;66.63;50.90;;;10.40;99.90;;;;;;5051556;27;20025;-91
2023/03/12 05:13:46;;;;;;;15.88;8.68;;;10.50;99.90;;;;;;5050425;28;20025;-91
2023/03/12 05:16:14;;;;;;;7.95;7.15;;;10.40;99.90;;;;;;5051153;28;20077;-91
2023/03/12 05:18:40;;;;;;;8.85;6.38;;;10.40;99.90;;;;;;5051704;28;20029;-91
2023/03/12 05:21:08;;;;;;;6.43;5.70;;;10.30;99.90;;;;;;5051614;28;20371;-91
2023/03/12 05:23:34;;;;;;;16.33;13.10;;;10.40;99.90;;;;;;5051521;28;20399;-91
2023/03/12 05:26:00;;;;;;;21.05;16.63;;;10.40;99.90;;;;;;5051367;28;20029;-90
2023/03/12 05:28:27;;;;;;;11.40;8.90;;;10.40;99.90;;;;;;5051345;28;20508;-91
2023/03/12 05:31:09;;;;;;;9.85;6.32;;;10.40;99.90;;;;;;5050277;28;20036;-91
2023/03/12 05:33:35;;;;;;;8.60;6.82;;;10.40;99.90;;;;;;5051335;28;20035;-91
2023/03/12 05:36:00;;;;;;;10.65;8.25;;;10.20;99.90;;;;;;5051303;28;20025;-91
2023/03/12 05:38:26;;;;;;;10.15;8.00;;;10.30;99.90;;;;;;5051206;28;20037;-91
2023/03/12 05:40:54;;;;;;;68.50;49.15;;;10.20;99.90;;;;;;5051194;28;20021;-91
2023/03/12 05:43:20;;;;;;;32.67;24.63;;;10.10;99.90;;;;;;5051179;28;20039;-90
2023/03/12 05:45:46;;;;;;;20.25;15.35;;;9.90;99.90;;;;;;5050956;28;20041;-91
2023/03/12 05:48:12;;;;;;;10.65;8.60;;;9.90;99.90;;;;;;5050910;28;20124;-91
2023/03/12 05:50:37;;;;;;;7.65;6.45;;;9.70;99.90;;;;;;5051075;28;20017;-91
2023/03/12 05:53:03;;;;;;;7.75;4.68;;;9.70;99.90;;;;;;5051063;28;20036;-91
2023/03/12 05:55:29;;;;;;;5.60;4.07;;;9.60;99.90;;;;;;5051082;28;20134;-90
2023/03/12 05:57:55;;;;;;;4.22;2.97;;;9.60;99.90;;;;;;5051203;28;20073;-91
2023/03/12 06:00:24;;;;;;;5.72;3.17;;;9.60;99.90;;;;;;5050719;28;20090;-91
2023/03/12 06:02:54;;;;;;;3.20;2.70;;;9.70;99.90;;;;;;5051358;28;20558;-92
2023/03/12 06:05:33;;;;;;;4.72;3.55;;;9.70;99.90;;;;;;5051139;28;20052;-91
2023/03/12 06:07:58;;;;;;;3.92;3.50;;;9.60;99.90;;;;;;5051147;28;20029;-91
2023/03/12 06:10:24;;;;;;;3.95;3.30;;;9.70;99.90;;;;;;5050884;28;20027;-92
2023/03/12 06:12:50;;;;;;;4.50;3.90;;;9.90;99.90;;;;;;5036713;28;20483;-91
2023/03/12 06:15:15;;;;;;;4.65;3.88;;;9.90;99.90;;;;;;5030420;28;20025;-91
2023/03/12 06:17:42;;;;;;;3.80;3.33;;;9.90;99.90;;;;;;5030283;28;20060;-91
2023/03/12 06:20:08;;;;;;;4.10;3.70;;;10.00;99.90;;;;;;5030557;28;20483;-91
2023/03/12 06:22:39;;;;;;;4.85;3.50;;;10.00;99.90;;;;;;5030863;28;20037;-91
2023/03/12 06:25:07;;;;;;;5.03;3.40;;;10.10;99.90;;;;;;5029573;28;20035;-92
2023/03/12 06:27:32;;;;;;;4.90;4.03;;;10.20;99.90;;;;;;5029495;28;20479;-91
2023/03/12 06:29:58;;;;;;;4.18;3.75;;;10.10;99.90;;;;;;5044227;28;20112;-90
2023/03/12 06:32:24;;;;;;;3.83;3.53;;;10.10;99.90;;;;;;5050632;28;20074;-91
2023/03/12 06:34:50;;;;;;;4.10;3.40;;;10.20;99.90;;;;;;5050894;28;20032;-91
2023/03/12 06:37:16;;;;;;;4.90;4.38;;;10.20;99.90;;;;;;5050675;28;20044;-89
2023/03/12 06:39:42;;;;;;;7.03;4.43;;;10.40;99.90;;;;;;5050453;28;20123;-91
2023/03/12 06:42:07;;;;;;;4.95;4.28;;;10.40;99.90;;;;;;5049763;28;20029;-91
2023/03/12 06:44:33;;;;;;;6.35;4.47;;;10.50;99.90;;;;;;5050257;28;20029;-90
2023/03/12 06:46:59;;;;;;;6.43;4.22;;;10.50;99.90;;;;;;5050241;28;20031;-90
2023/03/12 06:49:26;;;;;;;4.53;3.80;;;10.50;99.90;;;;;;5050213;28;20017;-90
2023/03/12 06:51:52;;;;;;;6.05;4.10;;;10.50;99.90;;;;;;5050228;28;20036;-91
2023/03/12 06:54:17;;;;;;;4.60;3.90;;;10.50;99.90;;;;;;5050098;28;20029;-91
2023/03/12 06:56:43;;;;;;;5.25;4.10;;;10.60;99.90;;;;;;5050083;28;20025;-91
2023/03/12 06:59:09;;;;;;;6.13;4.18;;;10.60;99.90;;;;;;5049702;28;20544;-91
2023/03/12 07:01:34;;;;;;;4.18;3.72;;;10.60;99.90;;;;;;5049861;28;20029;-91
2023/03/12 07:04:00;;;;;;;7.75;3.92;;;10.60;99.90;;;;;;5048730;28;20036;-92
2023/03/12 07:06:26;;;;;;;4.57;4.18;;;10.70;99.90;;;;;;5050015;28;20025;-91
2023/03/12 07:08:52;;;;;;;5.18;4.22;;;10.70;99.90;;;;;;5049987;28;20394;-91
2023/03/12 07:11:18;;;;;;;4.38;3.97;;;10.70;99.90;;;;;;5049556;27;20471;-91
2023/03/12 07:13:44;;;;;;;5.32;4.28;;;10.80;99.90;;;;;;5049762;28;20078;-91
2023/03/12 07:16:10;;;;;;;6.53;3.90;;;10.70;99.90;;;;;;5049485;28;20041;-90
2023/03/12 07:18:36;;;;;;;8.20;4.60;;;10.90;99.90;;;;;;5049730;28;20041;-91
2023/03/12 07:21:02;;;;;;;5.88;4.63;;;10.90;99.90;;;;;;5049947;28;20017;-91
2023/03/12 07:23:28;;;;;;;5.70;4.50;;;11.00;99.90;;;;;;5049605;28;20053;-91
2023/03/12 07:25:54;;;;;;;6.68;3.78;;;11.20;99.90;;;;;;5049600;28;20017;-91
2023/03/12 07:28:21;;;;;;;6.60;5.13;;;11.40;99.90;;;;;;5049521;28;20032;-91
2023/03/12 07:30:49;;;;;;;6.35;5.00;;;11.40;99.90;;;;;;5049615;28;20032;-93
2023/03/12 07:33:19;;;;;;;8.88;5.00;;;11.40;99.90;;;;;;5049514;28;20025;-91
2023/03/12 07:35:46;;;;;;;6.80;4.82;;;11.40;99.90;;;;;;5049615;28;20022;-91
2023/03/12 07:38:12;;;;;;;5.65;5.13;;;11.50;99.90;;;;;;5048913;28;20175;-92
2023/03/12 07:40:38;;;;;;;6.22;4.88;;;11.50;99.90;;;;;;5047596;28;20116;-91
2023/03/12 07:43:09;;;;;;;7.90;4.65;;;11.60;99.90;;;;;;5048779;28;20025;-91
2023/03/12 07:45:38;;;;;;;5.72;4.30;;;11.70;99.90;;;;;;5049481;28;20037;-92
2023/03/12 07:48:05;;;;;;;5.63;4.00;;;11.90;99.90;;;;;;5049413;28;20048;-91
2023/03/12 07:50:31;;;;;;;4.80;3.78;;;12.00;99.90;;;;;;5049259;28;20029;-91
2023/03/12 07:52:56;;;;;;;4.30;3.80;;;12.00;99.90;;;;;;5050415;28;20024;-92
2023/03/12 07:55:22;;;;;;;5.25;3.70;;;12.10;99.90;;;;;;5052571;28;20025;-91
2023/03/12 07:57:48;;;;;;;4.18;3.75;;;12.30;99.90;;;;;;5052967;28;20079;-91
2023/03/12 08:00:14;;;;;;;4.85;3.58;;;12.60;99.90;;;;;;5052867;28;20418;-86
2023/03/12 08:02:40;;;;;;;6.45;3.78;;;12.90;99.90;;;;;;5052611;28;20017;-84
2023/03/12 08:05:06;;;;;;;10.32;6.65;;;13.10;99.90;;;;;;5052679;28;20033;-84
2023/03/12 08:07:33;;;;;;;5.22;4.07;;;13.00;99.90;;;;;;5052718;28;20025;-84
2023/03/12 08:10:00;;;;;;;4.70;3.83;;;13.20;99.90;;;;;;5052414;28;20474;-84
2023/03/12 08:12:26;;;;;;;5.60;3.95;;;13.30;99.90;;;;;;5052364;27;20029;-84
2023/03/12 08:14:52;;;;;;;8.20;3.90;;;13.40;99.90;;;;;;5052536;28;20025;-84
2023/03/12 08:17:18;;;;;;;5.82;3.92;;;13.40;99.90;;;;;;5052446;28;20045;-84
2023/03/12 08:19:43;;;;;;;5.28;3.63;;;13.40;99.90;;;;;;5052480;28;20037;-84
2023/03/12 08:22:09;;;;;;;5.95;3.17;;;13.40;99.90;;;;;;5052370;28;20017;-84
2023/03/12 08:24:34;;;;;;;4.25;3.20;;;13.50;99.90;;;;;;5052155;28;20033;-84
2023/03/12 08:27:00;;;;;;;6.10;3.17;;;13.50;99.90;;;;;;5052286;28;20052;-84
2023/03/12 08:29:26;;;;;;;3.88;2.65;;;13.60;99.90;;;;;;5051074;28;20037;-84
2023/03/12 08:31:52;;;;;;;3.67;2.38;;;13.70;99.90;;;;;;5052229;28;20053;-84
2023/03/12 08:34:17;;;;;;;3.78;2.53;;;14.10;99.90;;;;;;5052266;28;20444;-84
2023/03/12 08:36:43;;;;;;;2.63;2.20;;;14.30;99.90;;;;;;5052246;28;20021;-84
2023/03/12 08:39:09;;;;;;;2.55;2.15;;;14.40;99.90;;;;;;5051727;28;20037;-84
2023/03/12 08:41:34;;;;;;;4.53;2.55;;;14.60;99.90;;;;;;5052082;28;20073;-84
2023/03/12 08:44:00;;;;;;;4.20;2.45;;;14.70;99.90;;;;;;5052000;28;20029;-83
2023/03/12 08:46:25;;;;;;;6.75;2.47;;;15.00;99.90;;;;;;5052122;28;20021;-84
2023/03/12 08:48:51;;;;;;;4.03;2.40;;;14.90;99.90;;;;;;5052105;28;20312;-84
2023/03/12 08:51:17;;;;;;;6.85;3.00;;;14.70;99.90;;;;;;5051838;28;20032;-83
2023/03/12 08:53:43;;;;;;;7.82;5.55;;;14.70;99.90;;;;;;5051649;28;20029;-84
2023/03/12 08:56:09;;;;;;;5.50;4.68;;;14.40;99.90;;;;;;5051891;28;20073;-84
2023/03/12 08:58:35;;;;;;;6.18;4.47;;;14.30;99.90;;;;;;5051782;28;20119;-84
2023/03/12 09:01:01;;;;;;;7.97;6.07;;;14.30;99.90;;;;;;5051918;28;20028;-83
2023/03/12 09:03:26;;;;;;;10.27;7.53;;;14.30;99.90;;;;;;5051407;28;20033;-84
2023/03/12 09:06:13;;;;;;;7.93;5.85;;;14.30;99.90;;;;;;5050994;28;20022;-84
2023/03/12 09:08:40;;;;;;;7.70;6.10;;;14.20;99.90;;;;;;5051218;28;20391;-83
2023/03/12 09:11:07;;;;;;;3.92;2.55;;;14.10;99.90;;;;;;5051629;28;20040;-84
2023/03/12 09:13:33;;;;;;;4.57;3.10;;;14.00;99.90;;;;;;5051607;28;20085;-84
2023/03/12 09:16:00;;;;;;;7.85;3.80;;;14.10;99.90;;;;;;5051236;28;20033;-84
2023/03/12 09:18:26;;;;;;;7.55;4.53;;;14.00;99.90;;;;;;5051606;28;20391;-84
2023/03/12 09:20:52;;;;;;;10.25;5.55;;;13.90;99.90;;;;;;5051518;28;20021;-85
2023/03/12 09:23:17;;;;;;;12.70;8.00;;;13.90;99.90;;;;;;5051172;28;20509;-84
2023/03/12 09:25:47;;;;;;;28.42;17.35;;;13.60;99.90;;;;;;5051430;28;20029;-83
2023/03/12 09:28:13;;;;;;;20.55;11.32;;;13.70;99.90;;;;;;5051389;28;20039;-84
2023/03/12 09:30:39;;;;;;;17.15;10.00;;;13.70;99.90;;;;;;5051418;28;20025;-83
2023/03/12 09:33:04;;;;;;;17.15;10.40;;;13.60;99.90;;;;;;5051373;28;20052;-84
2023/03/12 09:35:30;;;;;;;9.43;5.88;;;13.30;99.90;;;;;;5051310;28;20537;-84
2023/03/12 09:37:57;;;;;;;4.30;3.40;;;13.10;99.90;;;;;;5050976;28;20029;-83
2023/03/12 09:40:28;;;;;;;4.63;3.10;;;13.40;99.90;;;;;;5051213;28;20040;-84
2023/03/12 09:43:03;;;;;;;4.57;2.97;;;13.30;99.90;;;;;;5051131;28;20028;-84
2023/03/12 09:45:35;;;;;;;5.47;2.65;;;13.30;99.90;;;;;;5051065;27;20124;-84
2023/03/12 09:48:05;;;;;;;4.00;2.40;;;12.90;99.90;;;;;;5051135;28;20032;-83
2023/03/12 09:50:39;;;;;;;2.58;1.98;;;12.70;99.90;;;;;;5051045;28;20166;-83
2023/03/12 09:53:24;;;;;;;4.15;1.70;;;12.40;99.90;;;;;;5050863;28;20028;-83
2023/03/12 09:55:52;;;;;;;3.30;1.60;;;12.20;99.90;;;;;;5051092;28;20036;-83
2023/03/12 09:58:31;;;;;;;3.88;1.42;;;12.30;99.90;;;;;;5050936;28;20029;-83
2023/03/12 10:01:30;;;;;;;6.82;3.58;;;12.40;99.90;;;;;;5050929;28;20036;-83
2023/03/12 10:04:11;;;;;;;5.35;1.92;;;12.60;99.90;;;;;;5050829;28;20029;-84
2023/03/12 10:06:46;;;;;;;4.88;2.30;;;12.70;99.90;;;;;;5050502;28;20029;-83
2023/03/12 10:09:31;;;;;;;3.00;1.27;;;12.60;99.90;;;;;;5050863;28;20025;-83
2023/03/12 10:12:06;;;;;;;5.32;1.23;;;12.60;99.90;;;;;;5050424;27;20036;-84
2023/03/12 10:14:38;;;;;;;5.22;1.77;;;12.70;99.90;;;;;;5050792;28;20494;-83
2023/03/12 10:17:09;;;;;;;4.82;1.55;;;12.70;99.90;;;;;;5050176;28;20136;-83
2023/03/12 10:19:34;;;;;;;7.53;1.90;;;12.90;99.90;;;;;;5050530;28;20104;-83
2023/03/12 10:22:20;;;;;;;5.63;1.70;;;13.20;99.90;;;;;;5050071;28;20436;-83
2023/03/12 10:25:03;;;;;;;5.90;2.40;;;13.60;99.90;;;;;;5050523;28;20070;-83
2023/03/12 10:27:33;;;;;;;6.43;2.05;;;13.90;99.90;;;;;;5050442;28;20021;-84
2023/03/12 10:30:01;;;;;;;6.53;2.17;;;14.20;99.90;;;;;;5050474;28;20029;-84
2023/03/12 10:32:32;;;;;;;6.90;2.38;;;14.20;99.90;;;;;;5050460;28;20037;-84
2023/03/12 10:35:11;;;;;;;7.45;2.28;;;14.40;99.90;;;;;;5050109;28;20033;-83
2023/03/12 10:37:42;;;;;;;9.13;2.60;;;14.50;99.90;;;;;;5050349;28;20029;-84
2023/03/12 10:40:20;;;;;;;9.80;2.33;;;14.80;99.90;;;;;;5050206;28;20483;-83
2023/03/12 10:42:46;;;;;;;10.75;3.13;;;14.90;99.90;;;;;;5050331;28;20044;-83
2023/03/12 10:45:23;;;;;;;9.80;2.50;;;15.50;99.90;;;;;;5050408;28;20021;-84
2023/03/12 10:47:56;;;;;;;8.07;2.10;;;17.00;99.90;;;;;;5050205;28;20108;-83
2023/03/12 10:50:33;;;;;;;7.18;2.25;;;18.50;99.90;;;;;;5049913;28;20033;-84
2023/03/12 10:53:17;;;;;;;9.27;2.50;;;18.00;99.90;;;;;;5050184;28;20028;-83
2023/03/12 10:56:04;;;;;;;8.27;2.15;;;17.90;99.90;;;;;;5050036;27;20130;-84
2023/03/12 10:58:42;;;;;;;9.80;2.42;;;18.80;99.90;;;;;;5049832;27;20069;-84
2023/03/12 11:01:26;;;;;;;6.30;2.22;;;19.30;99.90;;;;;;5049985;28;20032;-83
2023/03/12 11:04:07;;;;;;;7.50;2.22;;;19.20;99.90;;;;;;5049687;28;20017;-83
2023/03/12 11:06:32;;;;;;;7.03;2.35;;;20.70;99.90;;;;;;5049979;28;20049;-83
2023/03/12 11:09:17;;;;;;;7.95;2.38;;;18.90;99.90;;;;;;5049977;28;20065;-84
2023/03/12 11:11:46;;;;;;;6.78;2.13;;;17.80;99.90;;;;;;5049687;27;20033;-83
2023/03/12 11:14:23;;;;;;;8.18;2.33;;;17.20;99.90;;;;;;5049812;28;20442;-84
2023/03/12 11:16:50;;;;;;;8.88;2.55;;;17.20;99.90;;;;;;5049523;28;20076;-84
2023/03/12 11:19:33;;;;;;;7.32;2.33;;;17.20;99.90;;;;;;5049336;28;20104;-83
2023/03/12 11:22:10;;;;;;;5.68;2.15;;;17.00;99.90;;;;;;5049678;28;20383;-83
2023/03/12 11:24:54;;;;;;;6.93;2.40;;;17.30;99.90;;;;;;5049578;28;20021;-83
2023/03/12 11:27:30;;;;;;;4.78;1.90;;;18.00;99.90;;;;;;5048666;28;20372;-84
2023/03/12 11:29:55;;;;;;;7.18;2.10;;;18.30;99.90;;;;;;5049556;28;20482;-83
2023/03/12 11:32:33;;;;;;;6.20;1.90;;;17.60;99.90;;;;;;5049575;28;20066;-83
2023/03/12 11:35:00;;;;;;;5.28;2.30;;;17.80;99.90;;;;;;5049783;28;20050;-83
2023/03/12 11:37:25;;;;;;;6.63;2.05;;;18.10;99.90;;;;;;5049475;28;20447;-83
2023/03/12 11:40:19;;;;;;;4.45;1.50;;;18.20;99.90;;;;;;5049325;28;20072;-83
2023/03/12 11:42:58;;;;;;;5.88;1.70;;;19.20;99.90;;;;;;5049440;28;20021;-83
2023/03/12 11:45:32;;;;;;;6.38;1.63;;;19.00;99.90;;;;;;5049431;28;20513;-83
2023/03/12 11:48:24;;;;;;;5.05;1.80;;;18.70;99.90;;;;;;5049019;28;20017;-83
2023/03/12 11:51:17;;;;;;;7.75;2.00;;;18.40;99.90;;;;;;5049284;28;20029;-83
2023/03/12 11:53:52;;;;;;;5.70;1.73;;;18.30;99.90;;;;;;5049385;28;20383;-83
2023/03/12 11:56:29;;;;;;;6.22;1.77;;;18.10;99.90;;;;;;5049340;28;20495;-83
2023/03/12 11:59:23;;;;;;;4.90;1.65;;;18.20;99.90;;;;;;5049213;28;20044;-83
2023/03/12 12:02:07;;;;;;;5.95;1.80;;;19.10;99.90;;;;;;5069658;28;20059;-83
2023/03/12 12:04:43;;;;;;;5.10;1.60;;;18.90;99.90;;;;;;5070018;28;20514;-83
2023/03/12 12:07:46;;;;;;;7.80;2.10;;;18.60;99.90;;;;;;5070088;28;20037;-83
2023/03/12 12:10:49;;;;;;;6.25;1.50;;;18.50;99.90;;;;;;5070112;28;20423;-83
2023/03/12 12:13:30;;;;;;;5.63;1.92;;;18.30;99.90;;;;;;5069604;28;20041;-83
2023/03/12 12:16:16;;;;;;;4.00;1.80;;;18.70;99.90;;;;;;5069601;28;20032;-83
2023/03/12 12:18:42;;;;;;;7.72;2.05;;;20.20;99.90;;;;;;5069871;28;20162;-83
2023/03/12 12:21:28;;;;;;;5.65;1.60;;;21.30;99.90;;;;;;5069975;28;20107;-83
2023/03/12 12:24:07;;;;;;;5.82;1.73;;;23.90;99.90;;;;;;5069926;28;20043;-83
2023/03/12 12:26:40;;;;;;;5.82;1.88;;;23.90;99.90;;;;;;5069908;28;20052;-83
2023/03/12 12:29:18;;;;;;;5.00;2.03;;;26.30;99.90;;;;;;5069940;28;20029;-83
2023/03/12 12:31:56;;;;;;;4.63;1.77;;;24.30;99.90;;;;;;5069361;28;20025;-83
2023/03/12 12:34:33;;;;;;;6.55;1.67;;;24.50;99.90;;;;;;5070017;28;20048;-84
2023/03/12 12:37:16;;;;;;;3.08;1.50;;;26.20;99.90;;;;;;5069877;28;20094;-83
2023/03/12 12:40:07;;;;;;;4.80;2.03;;;25.20;99.90;;;;;;5054513;28;20045;-83
2023/03/12 12:42:39;;;;;;;3.72;1.80;;;26.00;99.90;;;;;;5052223;28;20100;-84
2023/03/12 12:45:11;;;;;;;4.35;1.60;;;25.50;99.90;;;;;;5051923;28;20029;-83
2023/03/12 12:47:46;;;;;;;4.70;1.52;;;25.20;99.90;;;;;;5052060;28;20547;-83
2023/03/12 12:50:19;;;;;;;4.50;1.83;;;23.10;99.90;;;;;;5052042;28;20390;-83
2023/03/12 12:52:51;;;;;;;4.60;1.85;;;22.20;99.90;;;;;;5051945;28;20022;-83
2023/03/12 12:56:05;;;;;;;4.85;1.90;;;21.50;99.90;;;;;;5051941;28;20100;-83